sensor_id;sensor_type;location;lat;lon;timestamp;temperature;humidity
28189;DHT22;15471;51.166;4.470;2022-10-31T00:02:23;14.00;99.90
28189;DHT22;15471;51.166;4.470;2022-10-31T00:04:49;14.00;99.90
28189;DHT22;15471;51.166;4.470;2022-10-31T00:07:15;14.00;99.90
28189;DHT22;15471;51.166;4.470;2022-10-31T00:09:41;13.90;99.90
28189;DHT22;15471;51.166;4.470;2022-10-31T00:12:07;13.90;99.90
28189;DHT22;15471;51.166;4.470;2022-10-31T00:14:33;13.90;99.90
28189;DHT22;15471;51.166;4.470;2022-10-31T00:16:59;13.90;99.90
28189;DHT22;15471;51.166;4.470;2022-10-31T00:19:25;13.90;99.90
28189;DHT22;15471;51.166;4.470;2022-10-31T00:21:52;13.90;99.90
28189;DHT22;15471;51.166;4.470;2022-10-31T00:24:18;13.90;99.90
28189;DHT22;15471;51.166;4.470;2022-10-31T00:26:43;13.90;99.90
28189;DHT22;15471;51.166;4.470;2022-10-31T00:29:10;13.90;99.90
28189;DHT22;15471;51.166;4.470;2022-10-31T00:31:36;13.80;99.90
28189;DHT22;15471;51.166;4.470;2022-10-31T00:34:02;13.80;99.90
28189;DHT22;15471;51.166;4.470;2022-10-31T00:36:29;13.80;99.90
28189;DHT22;15471;51.166;4.470;2022-10-31T00:38:55;13.80;99.90
28189;DHT22;15471;51.166;4.470;2022-10-31T00:41:21;13.70;99.90
28189;DHT22;15471;51.166;4.470;2022-10-31T00:43:47;13.70;99.90
28189;DHT22;15471;51.166;4.470;2022-10-31T00:46:13;13.60;99.90
28189;DHT22;15471;51.166;4.470;2022-10-31T00:48:40;13.60;99.90
28189;DHT22;15471;51.166;4.470;2022-10-31T00:51:07;13.50;99.90
28189;DHT22;15471;51.166;4.470;2022-10-31T00:53:33;13.50;99.90
28189;DHT22;15471;51.166;4.470;2022-10-31T00:56:00;13.40;99.90
28189;DHT22;15471;51.166;4.470;2022-10-31T00:58:26;13.40;99.90
28189;DHT22;15471;51.166;4.470;2022-10-31T01:00:52;13.30;99.90
28189;DHT22;15471;51.166;4.470;2022-10-31T01:03:27;13.20;99.90
28189;DHT22;15471;51.166;4.470;2022-10-31T01:06:02;13.20;99.90
28189;DHT22;15471;51.166;4.470;2022-10-31T01:08:32;13.10;99.90
28189;DHT22;15471;51.166;4.470;2022-10-31T01:11:04;13.10;99.90
28189;DHT22;15471;51.166;4.470;2022-10-31T01:13:32;13.00;99.90
28189;DHT22;15471;51.166;4.470;2022-10-31T01:15:59;13.00;99.90
28189;DHT22;15471;51.166;4.470;2022-10-31T01:18:26;13.00;99.90
28189;DHT22;15471;51.166;4.470;2022-10-31T01:21:00;13.00;99.90
28189;DHT22;15471;51.166;4.470;2022-10-31T01:23:26;13.00;99.90
28189;DHT22;15471;51.166;4.470;2022-10-31T01:26:08;12.90;99.90
28189;DHT22;15471;51.166;4.470;2022-10-31T01:28:42;12.90;99.90
28189;DHT22;15471;51.166;4.470;2022-10-31T01:31:09;13.00;99.90
28189;DHT22;15471;51.166;4.470;2022-10-31T01:33:36;12.90;99.90
28189;DHT22;15471;51.166;4.470;2022-10-31T01:36:11;12.90;99.90
28189;DHT22;15471;51.166;4.470;2022-10-31T01:38:37;12.90;99.90
28189;DHT22;15471;51.166;4.470;2022-10-31T01:41:03;12.90;99.90
28189;DHT22;15471;51.166;4.470;2022-10-31T01:43:56;12.90;99.90
28189;DHT22;15471;51.166;4.470;2022-10-31T01:48:53;12.70;99.90
28189;DHT22;15471;51.166;4.470;2022-10-31T01:51:25;12.60;99.90
28189;DHT22;15471;51.166;4.470;2022-10-31T01:53:55;12.60;99.90
28189;DHT22;15471;51.166;4.470;2022-10-31T01:56:22;12.60;99.90
28189;DHT22;15471;51.166;4.470;2022-10-31T01:58:50;12.60;99.90
28189;DHT22;15471;51.166;4.470;2022-10-31T02:01:17;12.70;99.90
28189;DHT22;15471;51.166;4.470;2022-10-31T02:03:45;12.60;99.90
28189;DHT22;15471;51.166;4.470;2022-10-31T02:06:21;12.60;99.90
28189;DHT22;15471;51.166;4.470;2022-10-31T02:08:53;12.60;99.90
28189;DHT22;15471;51.166;4.470;2022-10-31T02:11:20;12.70;99.90
28189;DHT22;15471;51.166;4.470;2022-10-31T02:13:47;12.70;99.90
28189;DHT22;15471;51.166;4.470;2022-10-31T02:16:13;12.60;99.90
28189;DHT22;15471;51.166;4.470;2022-10-31T02:18:39;12.60;99.90
28189;DHT22;15471;51.166;4.470;2022-10-31T02:21:15;12.50;99.90
28189;DHT22;15471;51.166;4.470;2022-10-31T02:24:07;12.60;99.90
28189;DHT22;15471;51.166;4.470;2022-10-31T02:43:48;12.40;99.90
28189;DHT22;15471;51.166;4.470;2022-10-31T02:49:09;12.30;99.90
28189;DHT22;15471;51.166;4.470;2022-10-31T02:51:39;12.20;99.90
28189;DHT22;15471;51.166;4.470;2022-10-31T02:54:05;12.20;99.90
28189;DHT22;15471;51.166;4.470;2022-10-31T02:56:31;12.20;99.90
28189;DHT22;15471;51.166;4.470;2022-10-31T02:59:00;12.20;99.90
28189;DHT22;15471;51.166;4.470;2022-10-31T03:04:51;12.10;99.90
28189;DHT22;15471;51.166;4.470;2022-10-31T03:15:50;12.00;99.90
28189;DHT22;15471;51.166;4.470;2022-10-31T03:18:31;12.00;99.90
28189;DHT22;15471;51.166;4.470;2022-10-31T03:21:04;12.00;99.90
28189;DHT22;15471;51.166;4.470;2022-10-31T03:23:36;11.90;99.90
28189;DHT22;15471;51.166;4.470;2022-10-31T03:26:05;12.00;99.90
28189;DHT22;15471;51.166;4.470;2022-10-31T03:28:36;11.80;99.90
28189;DHT22;15471;51.166;4.470;2022-10-31T03:31:04;11.80;99.90
28189;DHT22;15471;51.166;4.470;2022-10-31T03:33:34;11.80;99.90
28189;DHT22;15471;51.166;4.470;2022-10-31T03:36:04;11.80;99.90
28189;DHT22;15471;51.166;4.470;2022-10-31T03:38:32;11.80;99.90
28189;DHT22;15471;51.166;4.470;2022-10-31T03:41:00;11.70;99.90
28189;DHT22;15471;51.166;4.470;2022-10-31T03:43:33;11.70;99.90
28189;DHT22;15471;51.166;4.470;2022-10-31T03:46:02;11.70;99.90
28189;DHT22;15471;51.166;4.470;2022-10-31T03:48:29;11.60;99.90
28189;DHT22;15471;51.166;4.470;2022-10-31T03:51:20;11.60;99.90
28189;DHT22;15471;51.166;4.470;2022-10-31T03:53:56;11.50;99.90
28189;DHT22;15471;51.166;4.470;2022-10-31T03:56:46;11.50;99.90
28189;DHT22;15471;51.166;4.470;2022-10-31T03:59:30;11.60;99.90
28189;DHT22;15471;51.166;4.470;2022-10-31T04:02:02;11.50;99.90
28189;DHT22;15471;51.166;4.470;2022-10-31T04:04:31;11.50;99.90
28189;DHT22;15471;51.166;4.470;2022-10-31T04:06:59;11.40;99.90
28189;DHT22;15471;51.166;4.470;2022-10-31T04:09:28;11.40;99.90
28189;DHT22;15471;51.166;4.470;2022-10-31T04:11:58;11.40;99.90
28189;DHT22;15471;51.166;4.470;2022-10-31T04:14:55;11.40;99.90
28189;DHT22;15471;51.166;4.470;2022-10-31T04:17:23;11.40;99.90
28189;DHT22;15471;51.166;4.470;2022-10-31T04:19:51;11.40;99.90
28189;DHT22;15471;51.166;4.470;2022-10-31T04:22:18;11.30;99.90
28189;DHT22;15471;51.166;4.470;2022-10-31T04:24:44;11.30;99.90
28189;DHT22;15471;51.166;4.470;2022-10-31T04:27:13;11.30;99.90
28189;DHT22;15471;51.166;4.470;2022-10-31T04:29:39;11.30;99.90
28189;DHT22;15471;51.166;4.470;2022-10-31T04:32:07;11.30;99.90
28189;DHT22;15471;51.166;4.470;2022-10-31T04:34:33;11.30;99.90
28189;DHT22;15471;51.166;4.470;2022-10-31T04:36:59;11.30;99.90
28189;DHT22;15471;51.166;4.470;2022-10-31T04:39:25;11.20;99.90
28189;DHT22;15471;51.166;4.470;2022-10-31T04:42:20;11.10;99.90
28189;DHT22;15471;51.166;4.470;2022-10-31T04:44:47;11.00;99.90
28189;DHT22;15471;51.166;4.470;2022-10-31T04:47:14;11.00;99.90
28189;DHT22;15471;51.166;4.470;2022-10-31T04:49:40;11.00;99.90
28189;DHT22;15471;51.166;4.470;2022-10-31T04:52:07;11.00;99.90
28189;DHT22;15471;51.166;4.470;2022-10-31T04:54:34;11.00;99.90
28189;DHT22;15471;51.166;4.470;2022-10-31T04:57:22;11.00;99.90
28189;DHT22;15471;51.166;4.470;2022-10-31T04:59:49;11.00;99.90
28189;DHT22;15471;51.166;4.470;2022-10-31T05:02:15;11.00;99.90
28189;DHT22;15471;51.166;4.470;2022-10-31T05:04:46;11.00;99.90
28189;DHT22;15471;51.166;4.470;2022-10-31T05:07:12;11.00;99.90
28189;DHT22;15471;51.166;4.470;2022-10-31T05:09:38;11.00;99.90
28189;DHT22;15471;51.166;4.470;2022-10-31T05:12:04;11.00;99.90
28189;DHT22;15471;51.166;4.470;2022-10-31T05:14:53;11.00;99.90
28189;DHT22;15471;51.166;4.470;2022-10-31T05:17:37;11.00;99.90
28189;DHT22;15471;51.166;4.470;2022-10-31T05:20:39;10.90;99.90
28189;DHT22;15471;51.166;4.470;2022-10-31T05:23:14;10.80;99.90
28189;DHT22;15471;51.166;4.470;2022-10-31T05:25:41;10.80;99.90
28189;DHT22;15471;51.166;4.470;2022-10-31T05:28:07;10.80;99.90
28189;DHT22;15471;51.166;4.470;2022-10-31T05:30:34;10.80;99.90
28189;DHT22;15471;51.166;4.470;2022-10-31T05:33:02;10.80;99.90
28189;DHT22;15471;51.166;4.470;2022-10-31T05:35:40;10.80;99.90
28189;DHT22;15471;51.166;4.470;2022-10-31T05:38:25;10.80;99.90
28189;DHT22;15471;51.166;4.470;2022-10-31T05:40:56;10.70;99.90
28189;DHT22;15471;51.166;4.470;2022-10-31T05:43:30;10.70;99.90
28189;DHT22;15471;51.166;4.470;2022-10-31T05:45:56;10.70;99.90
28189;DHT22;15471;51.166;4.470;2022-10-31T05:48:42;10.70;99.90
28189;DHT22;15471;51.166;4.470;2022-10-31T05:51:27;10.70;99.90
28189;DHT22;15471;51.166;4.470;2022-10-31T05:53:52;10.70;99.90
28189;DHT22;15471;51.166;4.470;2022-10-31T05:56:19;10.80;99.90
28189;DHT22;15471;51.166;4.470;2022-10-31T05:58:46;10.80;99.90
28189;DHT22;15471;51.166;4.470;2022-10-31T06:01:12;10.90;99.90
28189;DHT22;15471;51.166;4.470;2022-10-31T06:03:38;10.90;99.90
28189;DHT22;15471;51.166;4.470;2022-10-31T06:06:07;10.90;99.90
28189;DHT22;15471;51.166;4.470;2022-10-31T06:08:36;11.00;99.90
28189;DHT22;15471;51.166;4.470;2022-10-31T06:11:11;11.00;99.90
28189;DHT22;15471;51.166;4.470;2022-10-31T06:13:55;11.10;99.90
28189;DHT22;15471;51.166;4.470;2022-10-31T06:16:32;11.20;99.90
28189;DHT22;15471;51.166;4.470;2022-10-31T06:19:11;11.20;99.90
28189;DHT22;15471;51.166;4.470;2022-10-31T06:21:38;11.20;99.90
28189;DHT22;15471;51.166;4.470;2022-10-31T06:24:05;11.30;99.90
28189;DHT22;15471;51.166;4.470;2022-10-31T06:26:51;11.40;99.90
28189;DHT22;15471;51.166;4.470;2022-10-31T06:29:17;11.40;99.90
28189;DHT22;15471;51.166;4.470;2022-10-31T06:32:10;11.50;99.90
28189;DHT22;15471;51.166;4.470;2022-10-31T06:34:41;11.50;99.90
28189;DHT22;15471;51.166;4.470;2022-10-31T06:37:10;11.60;99.90
28189;DHT22;15471;51.166;4.470;2022-10-31T06:39:38;11.60;99.90
28189;DHT22;15471;51.166;4.470;2022-10-31T06:42:04;11.60;99.90
28189;DHT22;15471;51.166;4.470;2022-10-31T06:44:32;11.70;99.90
28189;DHT22;15471;51.166;4.470;2022-10-31T06:46:58;11.70;99.90
28189;DHT22;15471;51.166;4.470;2022-10-31T06:49:33;11.80;99.90
28189;DHT22;15471;51.166;4.470;2022-10-31T06:52:02;11.80;99.90
28189;DHT22;15471;51.166;4.470;2022-10-31T06:54:28;11.80;99.90
28189;DHT22;15471;51.166;4.470;2022-10-31T06:56:54;11.80;99.90
28189;DHT22;15471;51.166;4.470;2022-10-31T06:59:21;11.80;99.90
28189;DHT22;15471;51.166;4.470;2022-10-31T07:02:10;11.80;99.90
28189;DHT22;15471;51.166;4.470;2022-10-31T07:04:38;11.80;99.90
28189;DHT22;15471;51.166;4.470;2022-10-31T07:07:05;11.90;99.90
28189;DHT22;15471;51.166;4.470;2022-10-31T07:09:31;11.90;99.90
28189;DHT22;15471;51.166;4.470;2022-10-31T07:12:01;12.00;99.90
28189;DHT22;15471;51.166;4.470;2022-10-31T07:14:29;12.00;99.90
28189;DHT22;15471;51.166;4.470;2022-10-31T07:16:55;12.00;99.90
28189;DHT22;15471;51.166;4.470;2022-10-31T07:19:27;12.10;99.90
28189;DHT22;15471;51.166;4.470;2022-10-31T07:21:54;12.20;99.90
28189;DHT22;15471;51.166;4.470;2022-10-31T07:24:23;12.20;99.90
28189;DHT22;15471;51.166;4.470;2022-10-31T07:27:12;12.10;99.90
28189;DHT22;15471;51.166;4.470;2022-10-31T07:29:38;12.20;99.90
28189;DHT22;15471;51.166;4.470;2022-10-31T07:32:04;12.20;99.90
28189;DHT22;15471;51.166;4.470;2022-10-31T07:34:32;12.20;99.90
28189;DHT22;15471;51.166;4.470;2022-10-31T07:37:16;12.30;99.90
28189;DHT22;15471;51.166;4.470;2022-10-31T07:39:42;12.40;99.90
28189;DHT22;15471;51.166;4.470;2022-10-31T07:42:08;12.50;99.90
28189;DHT22;15471;51.166;4.470;2022-10-31T07:44:36;12.60;99.90
28189;DHT22;15471;51.166;4.470;2022-10-31T07:47:38;12.60;99.90
28189;DHT22;15471;51.166;4.470;2022-10-31T07:50:32;12.60;99.90
28189;DHT22;15471;51.166;4.470;2022-10-31T07:53:20;12.60;99.90
28189;DHT22;15471;51.166;4.470;2022-10-31T07:55:50;12.70;99.90
28189;DHT22;15471;51.166;4.470;2022-10-31T07:58:18;12.70;99.90
28189;DHT22;15471;51.166;4.470;2022-10-31T08:00:46;12.70;99.90
28189;DHT22;15471;51.166;4.470;2022-10-31T08:03:18;12.80;99.90
28189;DHT22;15471;51.166;4.470;2022-10-31T08:05:56;12.80;99.90
28189;DHT22;15471;51.166;4.470;2022-10-31T08:08:40;12.90;99.90
28189;DHT22;15471;51.166;4.470;2022-10-31T08:11:07;12.90;99.90
28189;DHT22;15471;51.166;4.470;2022-10-31T08:13:33;13.00;99.90
28189;DHT22;15471;51.166;4.470;2022-10-31T08:16:00;13.00;99.90
28189;DHT22;15471;51.166;4.470;2022-10-31T08:18:32;13.10;99.90
28189;DHT22;15471;51.166;4.470;2022-10-31T08:20:58;13.20;99.90
28189;DHT22;15471;51.166;4.470;2022-10-31T08:23:24;13.30;99.90
28189;DHT22;15471;51.166;4.470;2022-10-31T08:25:53;13.30;99.90
28189;DHT22;15471;51.166;4.470;2022-10-31T08:28:19;13.30;99.90
28189;DHT22;15471;51.166;4.470;2022-10-31T08:30:49;13.40;99.90
28189;DHT22;15471;51.166;4.470;2022-10-31T08:33:34;13.40;99.90
28189;DHT22;15471;51.166;4.470;2022-10-31T08:36:19;13.50;99.90
28189;DHT22;15471;51.166;4.470;2022-10-31T08:38:48;13.60;99.90
28189;DHT22;15471;51.166;4.470;2022-10-31T08:41:15;13.50;99.90
28189;DHT22;15471;51.166;4.470;2022-10-31T08:43:41;13.60;99.90
28189;DHT22;15471;51.166;4.470;2022-10-31T08:46:08;13.70;99.90
28189;DHT22;15471;51.166;4.470;2022-10-31T08:48:37;13.80;99.90
28189;DHT22;15471;51.166;4.470;2022-10-31T08:51:04;13.80;99.90
28189;DHT22;15471;51.166;4.470;2022-10-31T08:53:30;13.80;99.90
28189;DHT22;15471;51.166;4.470;2022-10-31T08:56:15;13.70;99.90
28189;DHT22;15471;51.166;4.470;2022-10-31T08:58:41;13.70;99.90
28189;DHT22;15471;51.166;4.470;2022-10-31T09:01:09;13.70;99.90
28189;DHT22;15471;51.166;4.470;2022-10-31T09:03:35;13.70;99.90
28189;DHT22;15471;51.166;4.470;2022-10-31T09:06:02;13.80;99.90
28189;DHT22;15471;51.166;4.470;2022-10-31T09:08:30;13.70;99.90
28189;DHT22;15471;51.166;4.470;2022-10-31T09:10:59;13.80;99.90
28189;DHT22;15471;51.166;4.470;2022-10-31T09:13:44;13.80;99.90
28189;DHT22;15471;51.166;4.470;2022-10-31T09:16:30;13.90;99.90
28189;DHT22;15471;51.166;4.470;2022-10-31T09:18:57;13.80;99.90
28189;DHT22;15471;51.166;4.470;2022-10-31T09:21:23;13.90;99.90
28189;DHT22;15471;51.166;4.470;2022-10-31T09:23:49;13.90;99.90
28189;DHT22;15471;51.166;4.470;2022-10-31T09:26:15;13.90;99.90
28189;DHT22;15471;51.166;4.470;2022-10-31T09:29:00;13.90;99.90
28189;DHT22;15471;51.166;4.470;2022-10-31T09:31:29;14.00;99.90
28189;DHT22;15471;51.166;4.470;2022-10-31T09:34:13;14.10;99.90
28189;DHT22;15471;51.166;4.470;2022-10-31T09:36:46;14.20;99.90
28189;DHT22;15471;51.166;4.470;2022-10-31T09:39:17;14.10;99.90
28189;DHT22;15471;51.166;4.470;2022-10-31T09:48:03;14.20;99.90
28189;DHT22;15471;51.166;4.470;2022-10-31T09:50:48;14.30;99.90
28189;DHT22;15471;51.166;4.470;2022-10-31T09:53:58;14.20;99.90
28189;DHT22;15471;51.166;4.470;2022-10-31T09:56:25;14.20;99.90
28189;DHT22;15471;51.166;4.470;2022-10-31T09:59:00;14.30;99.90
28189;DHT22;15471;51.166;4.470;2022-10-31T10:01:51;14.40;99.90
28189;DHT22;15471;51.166;4.470;2022-10-31T10:16:19;14.70;99.90
28189;DHT22;15471;51.166;4.470;2022-10-31T10:22:03;14.90;99.90
28189;DHT22;15471;51.166;4.470;2022-10-31T10:30:20;15.40;99.90
28189;DHT22;15471;51.166;4.470;2022-10-31T10:32:52;15.40;99.90
28189;DHT22;15471;51.166;4.470;2022-10-31T10:35:23;15.50;99.90
28189;DHT22;15471;51.166;4.470;2022-10-31T10:37:54;15.50;99.90
28189;DHT22;15471;51.166;4.470;2022-10-31T10:40:24;15.50;99.90
28189;DHT22;15471;51.166;4.470;2022-10-31T10:46:05;15.70;99.90
28189;DHT22;15471;51.166;4.470;2022-10-31T10:51:44;15.80;99.90
28189;DHT22;15471;51.166;4.470;2022-10-31T10:54:23;16.00;99.90
28189;DHT22;15471;51.166;4.470;2022-10-31T10:59:26;16.10;99.90
28189;DHT22;15471;51.166;4.470;2022-10-31T11:01:53;16.20;99.90
28189;DHT22;15471;51.166;4.470;2022-10-31T11:04:31;16.30;99.90
28189;DHT22;15471;51.166;4.470;2022-10-31T11:07:05;16.40;99.90
28189;DHT22;15471;51.166;4.470;2022-10-31T11:09:33;16.40;99.90
28189;DHT22;15471;51.166;4.470;2022-10-31T11:12:05;16.30;99.90
28189;DHT22;15471;51.166;4.470;2022-10-31T11:14:42;16.40;99.90
28189;DHT22;15471;51.166;4.470;2022-10-31T11:17:20;16.40;99.90
28189;DHT22;15471;51.166;4.470;2022-10-31T11:19:48;16.40;99.90
28189;DHT22;15471;51.166;4.470;2022-10-31T11:22:24;16.40;99.90
28189;DHT22;15471;51.166;4.470;2022-10-31T11:24:50;16.30;99.90
28189;DHT22;15471;51.166;4.470;2022-10-31T11:27:24;16.20;99.90
28189;DHT22;15471;51.166;4.470;2022-10-31T11:29:51;16.20;99.90
28189;DHT22;15471;51.166;4.470;2022-10-31T11:32:22;16.10;99.90
28189;DHT22;15471;51.166;4.470;2022-10-31T11:34:52;16.20;99.90
28189;DHT22;15471;51.166;4.470;2022-10-31T11:37:31;16.30;99.90
28189;DHT22;15471;51.166;4.470;2022-10-31T11:40:04;16.30;99.90
28189;DHT22;15471;51.166;4.470;2022-10-31T11:42:39;16.40;99.90
28189;DHT22;15471;51.166;4.470;2022-10-31T11:45:19;16.40;99.90
28189;DHT22;15471;51.166;4.470;2022-10-31T11:47:54;16.50;99.90
28189;DHT22;15471;51.166;4.470;2022-10-31T11:50:37;16.60;99.90
28189;DHT22;15471;51.166;4.470;2022-10-31T11:53:16;16.70;99.90
28189;DHT22;15471;51.166;4.470;2022-10-31T11:55:45;16.70;99.90
28189;DHT22;15471;51.166;4.470;2022-10-31T11:58:23;16.90;99.90
28189;DHT22;15471;51.166;4.470;2022-10-31T12:00:59;17.10;99.90
28189;DHT22;15471;51.166;4.470;2022-10-31T12:03:35;17.20;99.90
28189;DHT22;15471;51.166;4.470;2022-10-31T12:06:33;17.40;99.90
28189;DHT22;15471;51.166;4.470;2022-10-31T12:09:00;17.60;99.90
28189;DHT22;15471;51.166;4.470;2022-10-31T12:17:15;17.70;99.90
28189;DHT22;15471;51.166;4.470;2022-10-31T12:28:09;18.00;99.90
28189;DHT22;15471;51.166;4.470;2022-10-31T12:33:27;18.30;99.90
28189;DHT22;15471;51.166;4.470;2022-10-31T12:36:18;18.10;99.90
28189;DHT22;15471;51.166;4.470;2022-10-31T12:39:09;18.10;99.90
28189;DHT22;15471;51.166;4.470;2022-10-31T12:42:08;18.20;99.90
28189;DHT22;15471;51.166;4.470;2022-10-31T12:44:43;18.30;99.90
28189;DHT22;15471;51.166;4.470;2022-10-31T12:52:50;18.30;99.90
28189;DHT22;15471;51.166;4.470;2022-10-31T12:56:00;18.40;99.90
28189;DHT22;15471;51.166;4.470;2022-10-31T12:58:40;18.50;99.90
28189;DHT22;15471;51.166;4.470;2022-10-31T13:01:15;18.50;99.90
28189;DHT22;15471;51.166;4.470;2022-10-31T13:06:27;18.50;99.90
28189;DHT22;15471;51.166;4.470;2022-10-31T13:09:06;18.60;99.90
28189;DHT22;15471;51.166;4.470;2022-10-31T13:11:50;18.80;99.90
28189;DHT22;15471;51.166;4.470;2022-10-31T13:14:23;18.90;99.90
28189;DHT22;15471;51.166;4.470;2022-10-31T13:16:51;19.00;99.90
28189;DHT22;15471;51.166;4.470;2022-10-31T13:24:37;19.20;99.90
28189;DHT22;15471;51.166;4.470;2022-10-31T13:27:25;19.40;99.90
28189;DHT22;15471;51.166;4.470;2022-10-31T13:33:16;19.60;99.90
28189;DHT22;15471;51.166;4.470;2022-10-31T13:35:55;19.70;99.90
28189;DHT22;15471;51.166;4.470;2022-10-31T13:47:03;19.50;99.90
28189;DHT22;15471;51.166;4.470;2022-10-31T13:54:50;19.40;99.90
28189;DHT22;15471;51.166;4.470;2022-10-31T13:57:43;19.50;99.90
28189;DHT22;15471;51.166;4.470;2022-10-31T14:00:29;19.40;99.90
28189;DHT22;15471;51.166;4.470;2022-10-31T14:03:00;19.40;99.90
28189;DHT22;15471;51.166;4.470;2022-10-31T14:05:30;19.20;99.90
28189;DHT22;15471;51.166;4.470;2022-10-31T14:07:59;19.20;99.90
28189;DHT22;15471;51.166;4.470;2022-10-31T14:10:35;19.20;99.90
28189;DHT22;15471;51.166;4.470;2022-10-31T14:13:15;19.20;99.90
28189;DHT22;15471;51.166;4.470;2022-10-31T14:15:52;19.20;99.90
28189;DHT22;15471;51.166;4.470;2022-10-31T14:18:32;19.10;99.90
28189;DHT22;15471;51.166;4.470;2022-10-31T14:20:59;19.10;99.90
28189;DHT22;15471;51.166;4.470;2022-10-31T14:23:32;19.10;99.90
28189;DHT22;15471;51.166;4.470;2022-10-31T14:28:56;19.10;99.90
28189;DHT22;15471;51.166;4.470;2022-10-31T14:31:36;19.10;99.90
28189;DHT22;15471;51.166;4.470;2022-10-31T14:45:17;19.00;99.90
28189;DHT22;15471;51.166;4.470;2022-10-31T14:51:17;19.10;99.90
28189;DHT22;15471;51.166;4.470;2022-10-31T14:53:49;19.00;99.90
28189;DHT22;15471;51.166;4.470;2022-10-31T14:56:37;19.00;99.90
28189;DHT22;15471;51.166;4.470;2022-10-31T14:59:07;18.90;99.90
28189;DHT22;15471;51.166;4.470;2022-10-31T15:01:36;18.90;99.90
28189;DHT22;15471;51.166;4.470;2022-10-31T15:04:20;18.90;99.90
28189;DHT22;15471;51.166;4.470;2022-10-31T15:09:33;18.90;99.90
28189;DHT22;15471;51.166;4.470;2022-10-31T15:12:00;18.80;99.90
28189;DHT22;15471;51.166;4.470;2022-10-31T15:14:30;18.80;99.90
28189;DHT22;15471;51.166;4.470;2022-10-31T15:16:58;18.80;99.90
28189;DHT22;15471;51.166;4.470;2022-10-31T15:19:28;18.70;99.90
28189;DHT22;15471;51.166;4.470;2022-10-31T15:21:57;18.70;99.90
28189;DHT22;15471;51.166;4.470;2022-10-31T15:24:37;18.70;99.90
28189;DHT22;15471;51.166;4.470;2022-10-31T15:27:05;18.60;99.90
28189;DHT22;15471;51.166;4.470;2022-10-31T15:29:36;18.60;99.90
28189;DHT22;15471;51.166;4.470;2022-10-31T15:32:25;18.50;99.90
28189;DHT22;15471;51.166;4.470;2022-10-31T15:34:53;18.50;99.90
28189;DHT22;15471;51.166;4.470;2022-10-31T15:37:21;18.50;99.90
28189;DHT22;15471;51.166;4.470;2022-10-31T15:39:49;18.40;99.90
28189;DHT22;15471;51.166;4.470;2022-10-31T15:42:29;18.30;99.90
28189;DHT22;15471;51.166;4.470;2022-10-31T15:47:35;18.10;99.90
28189;DHT22;15471;51.166;4.470;2022-10-31T15:50:05;18.10;99.90
28189;DHT22;15471;51.166;4.470;2022-10-31T15:57:51;17.80;99.90
28189;DHT22;15471;51.166;4.470;2022-10-31T16:00:28;17.70;99.90
28189;DHT22;15471;51.166;4.470;2022-10-31T16:08:35;17.60;99.90
28189;DHT22;15471;51.166;4.470;2022-10-31T16:13:51;17.50;99.90
28189;DHT22;15471;51.166;4.470;2022-10-31T16:16:19;17.50;99.90
28189;DHT22;15471;51.166;4.470;2022-10-31T16:18:49;17.30;99.90
28189;DHT22;15471;51.166;4.470;2022-10-31T16:21:43;17.20;99.90
28189;DHT22;15471;51.166;4.470;2022-10-31T16:24:31;17.10;99.90
28189;DHT22;15471;51.166;4.470;2022-10-31T16:27:04;17.00;99.90
28189;DHT22;15471;51.166;4.470;2022-10-31T16:29:44;16.90;99.90
28189;DHT22;15471;51.166;4.470;2022-10-31T16:32:27;16.80;99.90
28189;DHT22;15471;51.166;4.470;2022-10-31T16:35:16;16.70;99.90
28189;DHT22;15471;51.166;4.470;2022-10-31T16:37:43;16.70;99.90
28189;DHT22;15471;51.166;4.470;2022-10-31T16:40:14;16.60;99.90
28189;DHT22;15471;51.166;4.470;2022-10-31T16:42:41;16.60;99.90
28189;DHT22;15471;51.166;4.470;2022-10-31T16:45:13;16.50;99.90
28189;DHT22;15471;51.166;4.470;2022-10-31T16:47:40;16.40;99.90
28189;DHT22;15471;51.166;4.470;2022-10-31T16:50:22;16.50;99.90
28189;DHT22;15471;51.166;4.470;2022-10-31T16:52:49;16.40;99.90
28189;DHT22;15471;51.166;4.470;2022-10-31T16:55:17;16.40;99.90
28189;DHT22;15471;51.166;4.470;2022-10-31T16:57:51;16.40;99.90
28189;DHT22;15471;51.166;4.470;2022-10-31T17:00:20;16.40;99.90
28189;DHT22;15471;51.166;4.470;2022-10-31T17:02:48;16.40;99.90
28189;DHT22;15471;51.166;4.470;2022-10-31T17:05:17;16.40;99.90
28189;DHT22;15471;51.166;4.470;2022-10-31T17:07:44;16.30;99.90
28189;DHT22;15471;51.166;4.470;2022-10-31T17:10:12;16.30;99.90
28189;DHT22;15471;51.166;4.470;2022-10-31T17:12:42;16.30;99.90
28189;DHT22;15471;51.166;4.470;2022-10-31T17:15:21;16.30;99.90
28189;DHT22;15471;51.166;4.470;2022-10-31T17:17:47;16.30;99.90
28189;DHT22;15471;51.166;4.470;2022-10-31T17:20:26;16.20;99.90
28189;DHT22;15471;51.166;4.470;2022-10-31T17:22:53;16.20;99.90
28189;DHT22;15471;51.166;4.470;2022-10-31T17:25:22;16.20;99.90
28189;DHT22;15471;51.166;4.470;2022-10-31T17:27:49;16.20;99.90
28189;DHT22;15471;51.166;4.470;2022-10-31T17:30:17;16.20;99.90
28189;DHT22;15471;51.166;4.470;2022-10-31T17:32:45;16.20;99.90
28189;DHT22;15471;51.166;4.470;2022-10-31T17:35:12;16.20;99.90
28189;DHT22;15471;51.166;4.470;2022-10-31T17:37:39;16.10;99.90
28189;DHT22;15471;51.166;4.470;2022-10-31T17:40:08;16.10;99.90
28189;DHT22;15471;51.166;4.470;2022-10-31T17:42:35;16.10;99.90
28189;DHT22;15471;51.166;4.470;2022-10-31T17:45:01;16.10;99.90
28189;DHT22;15471;51.166;4.470;2022-10-31T17:47:28;16.10;99.90
28189;DHT22;15471;51.166;4.470;2022-10-31T17:49:54;16.10;99.90
28189;DHT22;15471;51.166;4.470;2022-10-31T17:52:20;16.10;99.90
28189;DHT22;15471;51.166;4.470;2022-10-31T17:54:46;16.10;99.90
28189;DHT22;15471;51.166;4.470;2022-10-31T17:57:13;16.10;99.90
28189;DHT22;15471;51.166;4.470;2022-10-31T17:59:39;16.10;99.90
28189;DHT22;15471;51.166;4.470;2022-10-31T18:02:07;16.10;99.90
28189;DHT22;15471;51.166;4.470;2022-10-31T18:04:34;16.20;99.90
28189;DHT22;15471;51.166;4.470;2022-10-31T18:07:11;16.10;99.90
28189;DHT22;15471;51.166;4.470;2022-10-31T18:09:57;16.10;99.90
28189;DHT22;15471;51.166;4.470;2022-10-31T18:12:35;16.10;99.90
28189;DHT22;15471;51.166;4.470;2022-10-31T18:15:05;16.10;99.90
28189;DHT22;15471;51.166;4.470;2022-10-31T18:17:32;16.10;99.90
28189;DHT22;15471;51.166;4.470;2022-10-31T18:20:18;16.20;99.90
28189;DHT22;15471;51.166;4.470;2022-10-31T18:22:47;16.00;99.90
28189;DHT22;15471;51.166;4.470;2022-10-31T18:25:34;16.00;99.90
28189;DHT22;15471;51.166;4.470;2022-10-31T18:28:35;16.00;99.90
28189;DHT22;15471;51.166;4.470;2022-10-31T18:31:05;16.00;99.90
28189;DHT22;15471;51.166;4.470;2022-10-31T18:33:34;15.90;99.90
28189;DHT22;15471;51.166;4.470;2022-10-31T18:36:05;15.90;99.90
28189;DHT22;15471;51.166;4.470;2022-10-31T18:38:39;16.00;99.90